sensor_id;sensor_type;location;lat;lon;timestamp;temperature;humidity
52030;DHT22;38043;53.224;6.580;2023-01-28T00:02:05;2.00;99.90
52030;DHT22;38043;53.224;6.580;2023-01-28T00:04:31;2.00;99.90
52030;DHT22;38043;53.224;6.580;2023-01-28T00:06:56;2.00;99.90
52030;DHT22;38043;53.224;6.580;2023-01-28T00:09:22;2.00;99.90
52030;DHT22;38043;53.224;6.580;2023-01-28T00:11:47;2.00;99.90
52030;DHT22;38043;53.224;6.580;2023-01-28T00:14:13;2.00;99.90
52030;DHT22;38043;53.224;6.580;2023-01-28T00:16:39;2.00;99.90
52030;DHT22;38043;53.224;6.580;2023-01-28T00:19:04;2.00;99.90
52030;DHT22;38043;53.224;6.580;2023-01-28T00:21:30;2.00;99.90
52030;DHT22;38043;53.224;6.580;2023-01-28T00:23:55;2.00;99.90
52030;DHT22;38043;53.224;6.580;2023-01-28T00:26:22;2.00;99.90
52030;DHT22;38043;53.224;6.580;2023-01-28T00:28:47;2.00;99.90
52030;DHT22;38043;53.224;6.580;2023-01-28T00:33:39;2.10;99.90
52030;DHT22;38043;53.224;6.580;2023-01-28T00:36:04;2.20;99.90
52030;DHT22;38043;53.224;6.580;2023-01-28T00:38:31;2.20;99.90
52030;DHT22;38043;53.224;6.580;2023-01-28T00:41:05;2.20;99.90
52030;DHT22;38043;53.224;6.580;2023-01-28T00:43:31;2.10;99.90
52030;DHT22;38043;53.224;6.580;2023-01-28T00:45:56;2.20;99.90
52030;DHT22;38043;53.224;6.580;2023-01-28T00:48:22;2.10;99.90
52030;DHT22;38043;53.224;6.580;2023-01-28T00:50:47;2.10;99.90
52030;DHT22;38043;53.224;6.580;2023-01-28T00:53:13;2.00;99.90
52030;DHT22;38043;53.224;6.580;2023-01-28T00:55:38;2.00;99.90
52030;DHT22;38043;53.224;6.580;2023-01-28T00:58:04;2.00;99.90
52030;DHT22;38043;53.224;6.580;2023-01-28T01:00:29;2.00;99.90
52030;DHT22;38043;53.224;6.580;2023-01-28T01:02:55;2.00;99.90
52030;DHT22;38043;53.224;6.580;2023-01-28T01:05:20;2.00;99.90
52030;DHT22;38043;53.224;6.580;2023-01-28T01:07:46;2.00;99.90
52030;DHT22;38043;53.224;6.580;2023-01-28T01:10:13;1.90;99.90
52030;DHT22;38043;53.224;6.580;2023-01-28T01:12:38;2.00;99.90
52030;DHT22;38043;53.224;6.580;2023-01-28T01:15:04;2.00;99.90
52030;DHT22;38043;53.224;6.580;2023-01-28T01:17:33;2.00;99.90
52030;DHT22;38043;53.224;6.580;2023-01-28T01:19:59;2.00;99.90
52030;DHT22;38043;53.224;6.580;2023-01-28T01:22:24;2.10;99.90
52030;DHT22;38043;53.224;6.580;2023-01-28T01:24:50;2.10;99.90
52030;DHT22;38043;53.224;6.580;2023-01-28T01:27:15;2.00;99.90
52030;DHT22;38043;53.224;6.580;2023-01-28T01:29:41;2.00;99.90
52030;DHT22;38043;53.224;6.580;2023-01-28T01:32:06;2.00;99.90
52030;DHT22;38043;53.224;6.580;2023-01-28T01:34:32;2.00;99.90
52030;DHT22;38043;53.224;6.580;2023-01-28T01:36:57;2.00;99.90
52030;DHT22;38043;53.224;6.580;2023-01-28T01:39:23;2.00;99.90
52030;DHT22;38043;53.224;6.580;2023-01-28T01:41:49;2.10;99.90
52030;DHT22;38043;53.224;6.580;2023-01-28T01:46:58;2.10;99.90
52030;DHT22;38043;53.224;6.580;2023-01-28T01:49:25;2.10;99.90
52030;DHT22;38043;53.224;6.580;2023-01-28T01:51:59;2.00;99.90
52030;DHT22;38043;53.224;6.580;2023-01-28T01:54:26;2.00;99.90
52030;DHT22;38043;53.224;6.580;2023-01-28T01:56:53;2.00;99.90
52030;DHT22;38043;53.224;6.580;2023-01-28T01:59:21;2.10;99.90
52030;DHT22;38043;53.224;6.580;2023-01-28T02:01:49;2.00;99.90
52030;DHT22;38043;53.224;6.580;2023-01-28T02:04:17;2.00;99.90
52030;DHT22;38043;53.224;6.580;2023-01-28T02:06:44;2.70;99.90
52030;DHT22;38043;53.224;6.580;2023-01-28T02:09:23;2.00;99.90
52030;DHT22;38043;53.224;6.580;2023-01-28T02:11:49;1.90;99.90
52030;DHT22;38043;53.224;6.580;2023-01-28T02:14:16;2.10;99.90
52030;DHT22;38043;53.224;6.580;2023-01-28T02:16:41;2.00;99.90
52030;DHT22;38043;53.224;6.580;2023-01-28T02:19:07;2.00;99.90
52030;DHT22;38043;53.224;6.580;2023-01-28T02:24:13;2.00;99.90
52030;DHT22;38043;53.224;6.580;2023-01-28T02:31:59;2.00;99.90
52030;DHT22;38043;53.224;6.580;2023-01-28T02:37:11;2.00;99.90
52030;DHT22;38043;53.224;6.580;2023-01-28T02:39:41;2.00;99.90
52030;DHT22;38043;53.224;6.580;2023-01-28T02:42:11;2.00;99.90
52030;DHT22;38043;53.224;6.580;2023-01-28T02:44:39;2.00;99.90
52030;DHT22;38043;53.224;6.580;2023-01-28T02:47:11;2.00;99.90
52030;DHT22;38043;53.224;6.580;2023-01-28T02:49:55;1.90;99.90
52030;DHT22;38043;53.224;6.580;2023-01-28T02:55:30;2.00;99.90
52030;DHT22;38043;53.224;6.580;2023-01-28T02:58:02;2.00;99.90
52030;DHT22;38043;53.224;6.580;2023-01-28T03:03:20;2.00;99.90
52030;DHT22;38043;53.224;6.580;2023-01-28T03:05:51;2.00;99.90
52030;DHT22;38043;53.224;6.580;2023-01-28T03:08:37;2.00;99.90
52030;DHT22;38043;53.224;6.580;2023-01-28T03:11:21;2.00;99.90
52030;DHT22;38043;53.224;6.580;2023-01-28T03:14:06;2.00;99.90
52030;DHT22;38043;53.224;6.580;2023-01-28T03:16:51;2.00;99.90
52030;DHT22;38043;53.224;6.580;2023-01-28T03:19:36;2.00;99.90
52030;DHT22;38043;53.224;6.580;2023-01-28T03:22:21;2.00;99.90
52030;DHT22;38043;53.224;6.580;2023-01-28T03:25:05;2.00;99.90
52030;DHT22;38043;53.224;6.580;2023-01-28T03:28:00;2.00;99.90
52030;DHT22;38043;53.224;6.580;2023-01-28T03:30:55;2.00;99.90
52030;DHT22;38043;53.224;6.580;2023-01-28T03:33:40;2.00;99.90
52030;DHT22;38043;53.224;6.580;2023-01-28T03:36:25;2.00;99.90
52030;DHT22;38043;53.224;6.580;2023-01-28T03:39:10;2.00;99.90
52030;DHT22;38043;53.224;6.580;2023-01-28T03:41:35;2.00;99.90
52030;DHT22;38043;53.224;6.580;2023-01-28T03:44:01;2.00;99.90
52030;DHT22;38043;53.224;6.580;2023-01-28T03:46:45;2.00;99.90
52030;DHT22;38043;53.224;6.580;2023-01-28T03:49:10;2.00;99.90
52030;DHT22;38043;53.224;6.580;2023-01-28T03:51:36;2.00;99.90
52030;DHT22;38043;53.224;6.580;2023-01-28T03:54:01;2.00;99.90
52030;DHT22;38043;53.224;6.580;2023-01-28T03:56:27;2.00;99.90
52030;DHT22;38043;53.224;6.580;2023-01-28T03:58:56;2.00;99.90
52030;DHT22;38043;53.224;6.580;2023-01-28T04:01:22;2.00;99.90
52030;DHT22;38043;53.224;6.580;2023-01-28T04:03:48;2.00;99.90
52030;DHT22;38043;53.224;6.580;2023-01-28T04:06:13;2.00;99.90
52030;DHT22;38043;53.224;6.580;2023-01-28T04:08:39;2.00;99.90
52030;DHT22;38043;53.224;6.580;2023-01-28T04:11:10;2.00;99.90
52030;DHT22;38043;53.224;6.580;2023-01-28T04:13:44;2.00;99.90
52030;DHT22;38043;53.224;6.580;2023-01-28T04:16:10;2.00;99.90
52030;DHT22;38043;53.224;6.580;2023-01-28T04:18:36;2.00;99.90
52030;DHT22;38043;53.224;6.580;2023-01-28T04:21:01;2.00;99.90
52030;DHT22;38043;53.224;6.580;2023-01-28T04:23:27;2.00;99.90
52030;DHT22;38043;53.224;6.580;2023-01-28T04:25:54;2.00;99.90
52030;DHT22;38043;53.224;6.580;2023-01-28T04:28:19;2.00;99.90
52030;DHT22;38043;53.224;6.580;2023-01-28T04:30:45;2.00;99.90
52030;DHT22;38043;53.224;6.580;2023-01-28T04:33:11;2.00;99.90
52030;DHT22;38043;53.224;6.580;2023-01-28T04:35:37;2.00;99.90
52030;DHT22;38043;53.224;6.580;2023-01-28T04:38:02;2.00;99.90
52030;DHT22;38043;53.224;6.580;2023-01-28T04:40:28;2.00;99.90
52030;DHT22;38043;53.224;6.580;2023-01-28T04:42:54;2.00;99.90
52030;DHT22;38043;53.224;6.580;2023-01-28T04:45:19;1.50;99.90
52030;DHT22;38043;53.224;6.580;2023-01-28T04:47:45;2.00;99.90
52030;DHT22;38043;53.224;6.580;2023-01-28T04:50:11;2.00;99.90
52030;DHT22;38043;53.224;6.580;2023-01-28T04:52:36;2.00;99.90
52030;DHT22;38043;53.224;6.580;2023-01-28T04:55:02;2.70;99.90
52030;DHT22;38043;53.224;6.580;2023-01-28T04:57:28;2.00;99.90
52030;DHT22;38043;53.224;6.580;2023-01-28T04:59:53;2.40;99.90
52030;DHT22;38043;53.224;6.580;2023-01-28T05:02:19;2.00;99.90
52030;DHT22;38043;53.224;6.580;2023-01-28T05:04:44;2.00;99.90
52030;DHT22;38043;53.224;6.580;2023-01-28T05:07:10;2.00;99.90
52030;DHT22;38043;53.224;6.580;2023-01-28T05:09:36;2.00;99.90
52030;DHT22;38043;53.224;6.580;2023-01-28T05:12:01;2.00;99.90
52030;DHT22;38043;53.224;6.580;2023-01-28T05:14:27;2.00;99.90
52030;DHT22;38043;53.224;6.580;2023-01-28T05:16:52;2.00;99.90
52030;DHT22;38043;53.224;6.580;2023-01-28T05:19:18;2.00;99.90
52030;DHT22;38043;53.224;6.580;2023-01-28T05:21:43;1.90;99.90
52030;DHT22;38043;53.224;6.580;2023-01-28T05:24:09;2.00;99.90
52030;DHT22;38043;53.224;6.580;2023-01-28T05:26:34;1.90;99.90
52030;DHT22;38043;53.224;6.580;2023-01-28T05:29:01;2.00;99.90
52030;DHT22;38043;53.224;6.580;2023-01-28T05:31:27;1.90;99.90
52030;DHT22;38043;53.224;6.580;2023-01-28T05:33:52;1.90;99.90
52030;DHT22;38043;53.224;6.580;2023-01-28T05:36:18;1.90;99.90
52030;DHT22;38043;53.224;6.580;2023-01-28T05:38:43;1.90;99.90
52030;DHT22;38043;53.224;6.580;2023-01-28T05:41:09;1.90;99.90
52030;DHT22;38043;53.224;6.580;2023-01-28T05:43:34;1.90;99.90
52030;DHT22;38043;53.224;6.580;2023-01-28T05:46:00;1.90;99.90
52030;DHT22;38043;53.224;6.580;2023-01-28T05:48:26;1.90;99.90
52030;DHT22;38043;53.224;6.580;2023-01-28T05:50:51;1.90;99.90
52030;DHT22;38043;53.224;6.580;2023-01-28T05:53:17;1.90;99.90
52030;DHT22;38043;53.224;6.580;2023-01-28T05:55:42;2.00;99.90
52030;DHT22;38043;53.224;6.580;2023-01-28T05:58:08;1.90;99.90
52030;DHT22;38043;53.224;6.580;2023-01-28T06:00:33;2.00;99.90
52030;DHT22;38043;53.224;6.580;2023-01-28T06:02:59;2.00;99.90
52030;DHT22;38043;53.224;6.580;2023-01-28T06:05:24;2.00;99.90
52030;DHT22;38043;53.224;6.580;2023-01-28T06:07:50;2.00;99.90
52030;DHT22;38043;53.224;6.580;2023-01-28T06:10:16;2.00;99.90
52030;DHT22;38043;53.224;6.580;2023-01-28T06:12:44;2.00;99.90
52030;DHT22;38043;53.224;6.580;2023-01-28T06:15:10;2.00;99.90
52030;DHT22;38043;53.224;6.580;2023-01-28T06:17:35;1.90;99.90
52030;DHT22;38043;53.224;6.580;2023-01-28T06:20:01;1.90;99.90
52030;DHT22;38043;53.224;6.580;2023-01-28T06:22:26;1.90;99.90
52030;DHT22;38043;53.224;6.580;2023-01-28T06:24:52;1.90;99.90
52030;DHT22;38043;53.224;6.580;2023-01-28T06:27:17;1.90;99.90
52030;DHT22;38043;53.224;6.580;2023-01-28T06:29:43;1.90;99.90
52030;DHT22;38043;53.224;6.580;2023-01-28T06:32:08;1.90;99.90
52030;DHT22;38043;53.224;6.580;2023-01-28T06:34:34;1.90;99.90
52030;DHT22;38043;53.224;6.580;2023-01-28T06:36:59;1.90;99.90
52030;DHT22;38043;53.224;6.580;2023-01-28T06:39:25;1.90;99.90
52030;DHT22;38043;53.224;6.580;2023-01-28T06:41:52;1.90;99.90
52030;DHT22;38043;53.224;6.580;2023-01-28T06:44:17;1.90;99.90
52030;DHT22;38043;53.224;6.580;2023-01-28T06:46:43;1.90;99.90
52030;DHT22;38043;53.224;6.580;2023-01-28T06:49:08;1.80;99.90
52030;DHT22;38043;53.224;6.580;2023-01-28T06:51:34;1.80;99.90
52030;DHT22;38043;53.224;6.580;2023-01-28T06:54:00;1.80;99.90
52030;DHT22;38043;53.224;6.580;2023-01-28T06:56:25;1.80;99.90
52030;DHT22;38043;53.224;6.580;2023-01-28T06:58:51;1.70;99.90
52030;DHT22;38043;53.224;6.580;2023-01-28T07:01:16;1.70;99.90
52030;DHT22;38043;53.224;6.580;2023-01-28T07:03:42;1.70;99.90
52030;DHT22;38043;53.224;6.580;2023-01-28T07:06:07;1.70;99.90
52030;DHT22;38043;53.224;6.580;2023-01-28T07:08:33;1.70;99.90
52030;DHT22;38043;53.224;6.580;2023-01-28T07:10:58;1.90;99.90
52030;DHT22;38043;53.224;6.580;2023-01-28T07:13:24;1.70;99.90
52030;DHT22;38043;53.224;6.580;2023-01-28T07:15:50;1.70;99.90
52030;DHT22;38043;53.224;6.580;2023-01-28T07:18:16;1.70;99.90
52030;DHT22;38043;53.224;6.580;2023-01-28T07:20:41;1.70;99.90
52030;DHT22;38043;53.224;6.580;2023-01-28T07:23:07;1.70;99.90
52030;DHT22;38043;53.224;6.580;2023-01-28T07:25:32;1.60;99.90
52030;DHT22;38043;53.224;6.580;2023-01-28T07:27:58;1.70;99.90
52030;DHT22;38043;53.224;6.580;2023-01-28T07:30:23;1.50;99.90
52030;DHT22;38043;53.224;6.580;2023-01-28T07:32:56;1.40;99.90
52030;DHT22;38043;53.224;6.580;2023-01-28T07:35:21;1.30;99.90
52030;DHT22;38043;53.224;6.580;2023-01-28T07:37:51;1.30;99.90
52030;DHT22;38043;53.224;6.580;2023-01-28T07:40:17;1.20;99.90
52030;DHT22;38043;53.224;6.580;2023-01-28T07:42:42;1.20;99.90
52030;DHT22;38043;53.224;6.580;2023-01-28T07:45:08;1.20;99.90
52030;DHT22;38043;53.224;6.580;2023-01-28T07:47:33;1.10;99.90
52030;DHT22;38043;53.224;6.580;2023-01-28T07:49:59;1.10;99.90
52030;DHT22;38043;53.224;6.580;2023-01-28T07:52:25;1.10;99.90
52030;DHT22;38043;53.224;6.580;2023-01-28T07:54:50;1.10;99.90
52030;DHT22;38043;53.224;6.580;2023-01-28T07:57:16;1.10;99.90
52030;DHT22;38043;53.224;6.580;2023-01-28T07:59:50;1.00;99.90
52030;DHT22;38043;53.224;6.580;2023-01-28T08:02:16;1.00;99.90
52030;DHT22;38043;53.224;6.580;2023-01-28T08:04:42;1.00;99.90
52030;DHT22;38043;53.224;6.580;2023-01-28T08:07:08;1.00;99.90
52030;DHT22;38043;53.224;6.580;2023-01-28T08:09:33;1.00;99.90
52030;DHT22;38043;53.224;6.580;2023-01-28T08:12:02;1.10;99.90
52030;DHT22;38043;53.224;6.580;2023-01-28T08:14:28;1.10;99.90
52030;DHT22;38043;53.224;6.580;2023-01-28T08:16:53;1.10;99.90
52030;DHT22;38043;53.224;6.580;2023-01-28T08:19:19;1.10;99.90
52030;DHT22;38043;53.224;6.580;2023-01-28T08:21:46;1.20;99.90
52030;DHT22;38043;53.224;6.580;2023-01-28T08:24:12;1.20;99.90
52030;DHT22;38043;53.224;6.580;2023-01-28T08:26:37;1.30;99.90
52030;DHT22;38043;53.224;6.580;2023-01-28T08:29:03;1.50;99.90
52030;DHT22;38043;53.224;6.580;2023-01-28T08:31:28;1.80;99.90
52030;DHT22;38043;53.224;6.580;2023-01-28T08:33:54;1.90;99.90
52030;DHT22;38043;53.224;6.580;2023-01-28T08:36:19;2.00;99.90
52030;DHT22;38043;53.224;6.580;2023-01-28T08:38:45;2.00;99.90
52030;DHT22;38043;53.224;6.580;2023-01-28T08:41:10;2.10;99.90
52030;DHT22;38043;53.224;6.580;2023-01-28T08:43:36;2.20;99.90
52030;DHT22;38043;53.224;6.580;2023-01-28T08:46:04;2.00;99.90
52030;DHT22;38043;53.224;6.580;2023-01-28T08:48:29;1.90;99.90
52030;DHT22;38043;53.224;6.580;2023-01-28T08:50:57;2.10;99.90
52030;DHT22;38043;53.224;6.580;2023-01-28T08:53:22;1.90;99.90
52030;DHT22;38043;53.224;6.580;2023-01-28T08:55:48;1.80;99.90
52030;DHT22;38043;53.224;6.580;2023-01-28T08:58:14;1.90;99.90
52030;DHT22;38043;53.224;6.580;2023-01-28T09:00:40;1.90;99.90
52030;DHT22;38043;53.224;6.580;2023-01-28T09:03:06;2.00;99.90
52030;DHT22;38043;53.224;6.580;2023-01-28T09:05:32;2.10;99.90
52030;DHT22;38043;53.224;6.580;2023-01-28T09:08:02;2.20;99.90
52030;DHT22;38043;53.224;6.580;2023-01-28T09:10:27;2.30;99.90
52030;DHT22;38043;53.224;6.580;2023-01-28T09:12:53;2.50;99.90
52030;DHT22;38043;53.224;6.580;2023-01-28T09:15:18;2.60;99.90
52030;DHT22;38043;53.224;6.580;2023-01-28T09:17:44;2.60;99.90
52030;DHT22;38043;53.224;6.580;2023-01-28T09:20:10;2.40;99.90
52030;DHT22;38043;53.224;6.580;2023-01-28T09:22:36;2.80;99.90
52030;DHT22;38043;53.224;6.580;2023-01-28T09:25:02;2.90;99.90
52030;DHT22;38043;53.224;6.580;2023-01-28T09:27:27;3.10;99.90
52030;DHT22;38043;53.224;6.580;2023-01-28T09:29:53;3.30;99.90
52030;DHT22;38043;53.224;6.580;2023-01-28T09:32:18;3.50;99.90
52030;DHT22;38043;53.224;6.580;2023-01-28T09:34:44;3.70;99.90
52030;DHT22;38043;53.224;6.580;2023-01-28T09:37:10;4.00;99.90
52030;DHT22;38043;53.224;6.580;2023-01-28T09:39:36;4.30;99.90
52030;DHT22;38043;53.224;6.580;2023-01-28T09:45:09;4.50;99.90
52030;DHT22;38043;53.224;6.580;2023-01-28T09:47:45;4.50;99.90
52030;DHT22;38043;53.224;6.580;2023-01-28T09:52:47;4.40;99.90
52030;DHT22;38043;53.224;6.580;2023-01-28T09:55:15;4.30;99.90
52030;DHT22;38043;53.224;6.580;2023-01-28T09:57:44;4.30;99.90
52030;DHT22;38043;53.224;6.580;2023-01-28T10:00:13;4.20;99.90
52030;DHT22;38043;53.224;6.580;2023-01-28T10:05:15;4.20;99.90
52030;DHT22;38043;53.224;6.580;2023-01-28T10:10:18;4.40;99.90
52030;DHT22;38043;53.224;6.580;2023-01-28T10:12:57;4.50;99.90
52030;DHT22;38043;53.224;6.580;2023-01-28T10:17:51;4.60;99.90
52030;DHT22;38043;53.224;6.580;2023-01-28T10:20:22;4.70;99.90
52030;DHT22;38043;53.224;6.580;2023-01-28T10:25:19;5.60;99.90
52030;DHT22;38043;53.224;6.580;2023-01-28T10:27:46;6.10;99.90
52030;DHT22;38043;53.224;6.580;2023-01-28T10:30:16;6.70;99.90
52030;DHT22;38043;53.224;6.580;2023-01-28T10:32:44;7.30;99.90
52030;DHT22;38043;53.224;6.580;2023-01-28T10:35:11;7.90;99.90
52030;DHT22;38043;53.224;6.580;2023-01-28T10:37:36;7.90;99.90
52030;DHT22;38043;53.224;6.580;2023-01-28T10:40:04;7.70;99.90
52030;DHT22;38043;53.224;6.580;2023-01-28T10:42:31;7.40;99.90
52030;DHT22;38043;53.224;6.580;2023-01-28T10:47:46;7.00;99.90
52030;DHT22;38043;53.224;6.580;2023-01-28T10:50:14;6.60;99.90
52030;DHT22;38043;53.224;6.580;2023-01-28T10:52:53;6.40;99.90
52030;DHT22;38043;53.224;6.580;2023-01-28T10:55:19;6.20;99.90
52030;DHT22;38043;53.224;6.580;2023-01-28T10:57:45;6.10;99.90
52030;DHT22;38043;53.224;6.580;2023-01-28T11:00:25;6.00;99.90
52030;DHT22;38043;53.224;6.580;2023-01-28T11:02:50;6.00;99.90
52030;DHT22;38043;53.224;6.580;2023-01-28T11:05:34;6.00;99.90
52030;DHT22;38043;53.224;6.580;2023-01-28T11:08:12;5.90;99.90
52030;DHT22;38043;53.224;6.580;2023-01-28T11:10:38;5.90;99.90
52030;DHT22;38043;53.224;6.580;2023-01-28T11:13:05;5.90;99.90
52030;DHT22;38043;53.224;6.580;2023-01-28T11:15:31;5.90;99.90
52030;DHT22;38043;53.224;6.580;2023-01-28T11:18:00;5.80;99.90
52030;DHT22;38043;53.224;6.580;2023-01-28T11:20:27;5.70;99.90
52030;DHT22;38043;53.224;6.580;2023-01-28T11:22:53;5.70;99.90
52030;DHT22;38043;53.224;6.580;2023-01-28T11:25:27;5.80;99.90
52030;DHT22;38043;53.224;6.580;2023-01-28T11:27:53;5.70;99.90
52030;DHT22;38043;53.224;6.580;2023-01-28T11:30:22;6.50;99.90
52030;DHT22;38043;53.224;6.580;2023-01-28T11:32:55;5.60;99.90
52030;DHT22;38043;53.224;6.580;2023-01-28T11:35:25;5.60;99.90
52030;DHT22;38043;53.224;6.580;2023-01-28T11:37:53;5.60;99.90
52030;DHT22;38043;53.224;6.580;2023-01-28T11:40:18;5.60;99.90
52030;DHT22;38043;53.224;6.580;2023-01-28T11:42:47;5.60;99.90
52030;DHT22;38043;53.224;6.580;2023-01-28T11:45:17;5.60;99.90
52030;DHT22;38043;53.224;6.580;2023-01-28T11:47:46;5.70;99.90
52030;DHT22;38043;53.224;6.580;2023-01-28T11:50:24;5.70;99.90
52030;DHT22;38043;53.224;6.580;2023-01-28T11:52:57;5.70;99.90
52030;DHT22;38043;53.224;6.580;2023-01-28T12:03:18;5.70;99.90
52030;DHT22;38043;53.224;6.580;2023-01-28T12:05:47;5.70;99.90
52030;DHT22;38043;53.224;6.580;2023-01-28T12:13:21;5.50;99.90
52030;DHT22;38043;53.224;6.580;2023-01-28T12:26:14;5.30;99.90
52030;DHT22;38043;53.224;6.580;2023-01-28T12:39:02;4.90;99.90
52030;DHT22;38043;53.224;6.580;2023-01-28T12:41:38;4.80;99.90
52030;DHT22;38043;53.224;6.580;2023-01-28T12:44:09;4.80;99.90
52030;DHT22;38043;53.224;6.580;2023-01-28T12:49:06;4.70;99.90
52030;DHT22;38043;53.224;6.580;2023-01-28T12:54:05;4.70;99.90
52030;DHT22;38043;53.224;6.580;2023-01-28T12:56:38;4.60;99.90
52030;DHT22;38043;53.224;6.580;2023-01-28T12:59:10;4.60;99.90
52030;DHT22;38043;53.224;6.580;2023-01-28T13:01:43;4.60;99.90
52030;DHT22;38043;53.224;6.580;2023-01-28T13:09:47;4.80;99.90
52030;DHT22;38043;53.224;6.580;2023-01-28T13:12:13;5.00;99.90
52030;DHT22;38043;53.224;6.580;2023-01-28T13:14:39;5.10;99.90
52030;DHT22;38043;53.224;6.580;2023-01-28T13:17:09;5.20;99.90
52030;DHT22;38043;53.224;6.580;2023-01-28T13:19:36;5.30;99.90
52030;DHT22;38043;53.224;6.580;2023-01-28T13:24:46;5.40;99.90
52030;DHT22;38043;53.224;6.580;2023-01-28T13:27:12;5.50;99.90
52030;DHT22;38043;53.224;6.580;2023-01-28T13:29:38;5.60;99.90
52030;DHT22;38043;53.224;6.580;2023-01-28T13:32:24;5.60;99.90
52030;DHT22;38043;53.224;6.580;2023-01-28T13:34:55;5.60;99.90
52030;DHT22;38043;53.224;6.580;2023-01-28T13:39:50;5.60;99.90
52030;DHT22;38043;53.224;6.580;2023-01-28T13:44:46;5.60;99.90
52030;DHT22;38043;53.224;6.580;2023-01-28T13:49:56;5.60;99.90
52030;DHT22;38043;53.224;6.580;2023-01-28T13:52:24;5.60;99.90
52030;DHT22;38043;53.224;6.580;2023-01-28T13:54:52;5.60;99.90
52030;DHT22;38043;53.224;6.580;2023-01-28T14:02:50;5.60;99.90
52030;DHT22;38043;53.224;6.580;2023-01-28T14:12:56;5.70;99.90
52030;DHT22;38043;53.224;6.580;2023-01-28T14:15:35;5.70;99.90
52030;DHT22;38043;53.224;6.580;2023-01-28T14:18:02;5.60;99.90
52030;DHT22;38043;53.224;6.580;2023-01-28T14:20:31;5.50;99.90
52030;DHT22;38043;53.224;6.580;2023-01-28T14:23:05;5.50;99.90
52030;DHT22;38043;53.224;6.580;2023-01-28T14:25:35;5.50;99.90
52030;DHT22;38043;53.224;6.580;2023-01-28T14:28:03;5.40;99.90
52030;DHT22;38043;53.224;6.580;2023-01-28T14:30:40;5.40;99.90
52030;DHT22;38043;53.224;6.580;2023-01-28T14:33:08;5.30;99.90
52030;DHT22;38043;53.224;6.580;2023-01-28T14:35:35;5.30;99.90
52030;DHT22;38043;53.224;6.580;2023-01-28T14:38:06;5.30;99.90
52030;DHT22;38043;53.224;6.580;2023-01-28T14:40:32;5.30;99.90
52030;DHT22;38043;53.224;6.580;2023-01-28T14:42:59;5.30;99.90
52030;DHT22;38043;53.224;6.580;2023-01-28T14:48:28;5.30;99.90
52030;DHT22;38043;53.224;6.580;2023-01-28T14:58:55;5.10;99.90
52030;DHT22;38043;53.224;6.580;2023-01-28T15:01:22;5.10;99.90
52030;DHT22;38043;53.224;6.580;2023-01-28T15:03:48;5.10;99.90
52030;DHT22;38043;53.224;6.580;2023-01-28T15:06:15;5.10;99.90
52030;DHT22;38043;53.224;6.580;2023-01-28T15:08:41;5.10;99.90
52030;DHT22;38043;53.224;6.580;2023-01-28T15:11:08;5.10;99.90
52030;DHT22;38043;53.224;6.580;2023-01-28T15:13:36;5.10;99.90
52030;DHT22;38043;53.224;6.580;2023-01-28T15:16:03;5.10;99.90
52030;DHT22;38043;53.224;6.580;2023-01-28T15:18:30;5.00;99.90
52030;DHT22;38043;53.224;6.580;2023-01-28T15:20:56;5.00;99.90
52030;DHT22;38043;53.224;6.580;2023-01-28T15:23:32;5.00;99.90
52030;DHT22;38043;53.224;6.580;2023-01-28T15:26:03;4.40;99.90
52030;DHT22;38043;53.224;6.580;2023-01-28T15:28:29;4.90;99.90
52030;DHT22;38043;53.224;6.580;2023-01-28T15:30:57;4.90;99.90
52030;DHT22;38043;53.224;6.580;2023-01-28T15:33:23;4.90;99.90
52030;DHT22;38043;53.224;6.580;2023-01-28T15:35:50;4.90;99.90
52030;DHT22;38043;53.224;6.580;2023-01-28T15:38:16;4.80;99.90
52030;DHT22;38043;53.224;6.580;2023-01-28T15:40:47;4.80;99.90
52030;DHT22;38043;53.224;6.580;2023-01-28T15:43:14;5.00;99.90
52030;DHT22;38043;53.224;6.580;2023-01-28T15:45:43;4.70;99.90
52030;DHT22;38043;53.224;6.580;2023-01-28T15:48:09;4.70;99.90
52030;DHT22;38043;53.224;6.580;2023-01-28T15:50:36;4.60;99.90
52030;DHT22;38043;53.224;6.580;2023-01-28T15:53:02;4.00;99.90
52030;DHT22;38043;53.224;6.580;2023-01-28T16:00:45;4.50;99.90
52030;DHT22;38043;53.224;6.580;2023-01-28T16:03:18;4.50;99.90
52030;DHT22;38043;53.224;6.580;2023-01-28T16:05:52;4.40;99.90
52030;DHT22;38043;53.224;6.580;2023-01-28T16:08:23;4.40;99.90
52030;DHT22;38043;53.224;6.580;2023-01-28T16:10:51;4.40;99.90
52030;DHT22;38043;53.224;6.580;2023-01-28T16:13:21;4.30;99.90
52030;DHT22;38043;53.224;6.580;2023-01-28T16:15:47;4.30;99.90
52030;DHT22;38043;53.224;6.580;2023-01-28T16:20:55;4.20;99.90
52030;DHT22;38043;53.224;6.580;2023-01-28T16:23:21;4.20;99.90
52030;DHT22;38043;53.224;6.580;2023-01-28T16:25:59;4.20;99.90
52030;DHT22;38043;53.224;6.580;2023-01-28T16:28:25;4.20;99.90
52030;DHT22;38043;53.224;6.580;2023-01-28T16:30:50;4.30;99.90
52030;DHT22;38043;53.224;6.580;2023-01-28T16:33:17;4.20;99.90
52030;DHT22;38043;53.224;6.580;2023-01-28T16:35:43;4.20;99.90
52030;DHT22;38043;53.224;6.580;2023-01-28T16:38:09;4.20;99.90
52030;DHT22;38043;53.224;6.580;2023-01-28T16:40:34;4.20;99.90
52030;DHT22;38043;53.224;6.580;2023-01-28T16:43:02;4.10;99.90
52030;DHT22;38043;53.224;6.580;2023-01-28T16:45:27;4.10;99.90
52030;DHT22;38043;53.224;6.580;2023-01-28T16:47:53;4.20;99.90
52030;DHT22;38043;53.224;6.580;2023-01-28T16:50:19;4.20;99.90
52030;DHT22;38043;53.224;6.580;2023-01-28T16:52:47;4.10;99.90
52030;DHT22;38043;53.224;6.580;2023-01-28T16:55:14;4.10;99.90
52030;DHT22;38043;53.224;6.580;2023-01-28T16:57:40;4.10;99.90
52030;DHT22;38043;53.224;6.580;2023-01-28T17:00:07;4.10;99.90
52030;DHT22;38043;53.224;6.580;2023-01-28T17:02:32;4.10;99.90
52030;DHT22;38043;53.224;6.580;2023-01-28T17:04:58;4.10;99.90
52030;DHT22;38043;53.224;6.580;2023-01-28T17:07:23;4.10;99.90
52030;DHT22;38043;53.224;6.580;2023-01-28T17:09:49;4.10;99.90
52030;DHT22;38043;53.224;6.580;2023-01-28T17:12:15;4.10;99.90
52030;DHT22;38043;53.224;6.580;2023-01-28T17:14:40;4.10;99.90
52030;DHT22;38043;53.224;6.580;2023-01-28T17:17:06;4.10;99.90
52030;DHT22;38043;53.224;6.580;2023-01-28T17:19:31;4.10;99.90
52030;DHT22;38043;53.224;6.580;2023-01-28T17:21:57;4.20;99.90
52030;DHT22;38043;53.224;6.580;2023-01-28T17:24:23;4.10;99.90
52030;DHT22;38043;53.224;6.580;2023-01-28T17:26:52;4.10;99.90
52030;DHT22;38043;53.224;6.580;2023-01-28T17:29:17;4.10;99.90
52030;DHT22;38043;53.224;6.580;2023-01-28T17:31:43;4.10;99.90
52030;DHT22;38043;53.224;6.580;2023-01-28T17:34:09;4.10;99.90
52030;DHT22;38043;53.224;6.580;2023-01-28T17:36:36;4.00;99.90
52030;DHT22;38043;53.224;6.580;2023-01-28T17:39:02;4.10;99.90
52030;DHT22;38043;53.224;6.580;2023-01-28T17:41:28;4.10;99.90
52030;DHT22;38043;53.224;6.580;2023-01-28T17:43:54;4.00;99.90
52030;DHT22;38043;53.224;6.580;2023-01-28T17:46:20;4.10;99.90
52030;DHT22;38043;53.224;6.580;2023-01-28T17:48:46;4.20;99.90
52030;DHT22;38043;53.224;6.580;2023-01-28T17:51:12;4.00;99.90
52030;DHT22;38043;53.224;6.580;2023-01-28T17:53:38;4.10;99.90
52030;DHT22;38043;53.224;6.580;2023-01-28T17:56:04;4.00;99.90